Time;durP1;ratioP1;P1;durP2;ratioP2;P2;SDS_P1;SDS_P2;PMS_P1;PMS_P2;Temp;Humidity;BMP_temperature;BMP_pressure;BME280_temperature;BME280_humidity;BME280_pressure;Samples;Min_cycle;Max_cycle;Signal;HPM_P1;HPM_P2
2021/05/26 00:00:11;;;;;;;3.00;1.60;;;;;;;8.64;71.43;99187.48;124590;1104;64252;-84
2021/05/26 00:02:58;;;;;;;2.93;1.63;;;;;;;8.64;71.46;99187.48;124586;1097;64319;-84
2021/05/26 00:05:26;;;;;;;4.40;1.27;;;;;;;8.61;71.44;99187.63;124660;1104;64467;-85
2021/05/26 00:07:53;;;;;;;2.83;1.53;;;;;;;8.60;71.39;99199.22;124643;1105;64339;-85
2021/05/26 00:10:20;;;;;;;2.63;1.77;;;;;;;8.57;71.53;99198.44;124619;1104;64254;-85
2021/05/26 00:12:48;;;;;;;4.20;1.50;;;;;;;8.55;71.43;99199.46;124552;1104;64367;-84
2021/05/26 00:15:15;;;;;;;3.30;1.70;;;;;;;8.53;71.71;99203.99;124622;1104;64314;-84
2021/05/26 00:17:43;;;;;;;1.50;1.10;;;;;;;8.50;71.52;99207.67;124616;1097;64399;-84
2021/05/26 00:20:10;;;;;;;3.43;1.40;;;;;;;8.50;71.66;99220.11;124662;1097;64338;-83
2021/05/26 00:22:38;;;;;;;2.90;1.47;;;;;;;8.49;71.52;99216.59;124669;1104;64328;-84
2021/05/26 00:25:06;;;;;;;2.77;1.50;;;;;;;8.49;71.46;99213.94;124592;1104;64285;-85
2021/05/26 00:27:33;;;;;;;2.97;1.40;;;;;;;8.47;71.56;99221.13;124508;1104;64235;-85
2021/05/26 00:30:00;;;;;;;4.65;1.90;;;;;;;8.42;71.58;99217.86;124620;1104;64635;-85
2021/05/26 00:32:27;;;;;;;4.53;1.70;;;;;;;8.38;71.65;99216.30;124629;1104;64330;-84
2021/05/26 00:34:55;;;;;;;3.60;1.50;;;;;;;8.34;71.61;99217.39;124698;1104;64441;-84
2021/05/26 00:37:22;;;;;;;3.00;1.50;;;;;;;8.30;71.74;99218.52;124547;1104;64676;-84
2021/05/26 00:39:49;;;;;;;4.07;1.77;;;;;;;8.27;71.83;99224.85;124597;1097;64336;-86
2021/05/26 00:42:21;;;;;;;4.37;1.80;;;;;;;8.23;71.78;99223.28;124588;1104;64346;-84
2021/05/26 00:44:52;;;;;;;2.37;1.63;;;;;;;8.22;71.94;99228.70;124767;1097;64326;-84
2021/05/26 00:47:37;;;;;;;2.80;1.70;;;;;;;8.19;72.09;99228.83;124632;1097;64377;-84
2021/05/26 00:50:06;;;;;;;3.27;1.70;;;;;;;8.13;72.09;99222.91;124670;1097;64363;-84
2021/05/26 00:52:33;;;;;;;4.03;1.60;;;;;;;8.08;72.08;99219.67;124712;1105;64445;-84
2021/05/26 00:55:01;;;;;;;3.70;2.17;;;;;;;8.03;72.17;99219.06;124652;1104;64477;-85
2021/05/26 00:57:29;;;;;;;3.23;2.00;;;;;;;8.03;72.36;99218.17;124573;1097;64358;-84
2021/05/26 00:59:56;;;;;;;3.07;1.90;;;;;;;8.01;72.36;99214.77;124658;1104;64291;-85
2021/05/26 01:02:24;;;;;;;2.30;1.47;;;;;;;8.00;72.52;99203.27;124618;1104;64265;-84
2021/05/26 01:04:51;;;;;;;2.13;1.57;;;;;;;7.99;72.50;99203.38;124631;1104;64345;-85
2021/05/26 01:07:19;;;;;;;5.07;1.90;;;;;;;7.97;72.54;99203.44;124533;1104;64498;-84
2021/05/26 01:09:46;;;;;;;3.03;1.70;;;;;;;7.95;72.52;99199.15;124604;1097;64343;-84
2021/05/26 01:12:13;;;;;;;2.57;1.53;;;;;;;7.91;72.65;99199.31;124593;1097;64326;-86
2021/05/26 01:14:41;;;;;;;2.83;1.73;;;;;;;7.90;72.51;99194.11;124629;1096;64329;-85
2021/05/26 01:17:08;;;;;;;2.77;1.20;;;;;;;7.88;72.63;99195.98;124567;1097;64248;-85
2021/05/26 01:19:36;;;;;;;2.90;1.40;;;;;;;7.84;72.70;99192.61;124697;1097;64326;-85
2021/05/26 01:22:06;;;;;;;1.85;1.30;;;;;;;7.84;73.04;99187.30;124618;1104;64311;-86
2021/05/26 01:24:34;;;;;;;2.80;1.25;;;;;;;7.85;72.96;99182.88;124643;1104;64824;-85
2021/05/26 01:27:03;;;;;;;2.27;1.50;;;;;;;7.86;73.07;99177.47;124565;1097;64381;-85
2021/05/26 01:29:30;;;;;;;2.83;1.80;;;;;;;7.86;72.95;99185.43;124655;1104;64492;-86
2021/05/26 01:32:00;;;;;;;2.17;1.50;;;;;;;7.85;73.06;99189.03;124647;1104;64425;-86
2021/05/26 01:34:27;;;;;;;4.17;1.57;;;;;;;7.84;72.91;99189.10;124636;1096;64390;-85
2021/05/26 01:36:54;;;;;;;3.20;1.20;;;;;;;7.82;73.02;99191.86;124590;1097;64365;-85
2021/05/26 01:39:21;;;;;;;2.17;1.00;;;;;;;7.81;73.13;99192.77;124582;1097;64454;-85
2021/05/26 01:41:49;;;;;;;3.13;1.30;;;;;;;7.80;72.99;99187.56;124551;1104;64477;-84
2021/05/26 01:44:17;;;;;;;3.63;1.40;;;;;;;7.78;73.04;99190.29;124650;1104;64339;-84
2021/05/26 01:46:44;;;;;;;3.05;1.20;;;;;;;7.76;72.96;99189.50;124564;1097;64345;-85
2021/05/26 01:49:11;;;;;;;2.30;1.20;;;;;;;7.75;73.10;99185.15;124671;1104;64661;-85
2021/05/26 01:51:38;;;;;;;3.00;1.60;;;;;;;7.75;73.10;99190.45;124644;1097;64338;-85
2021/05/26 01:54:06;;;;;;;2.83;1.37;;;;;;;7.72;73.07;99195.08;124601;1104;64467;-85
2021/05/26 01:56:34;;;;;;;3.03;1.50;;;;;;;7.69;73.20;99188.13;124659;1104;64353;-86
2021/05/26 01:59:01;;;;;;;3.40;1.30;;;;;;;7.68;73.07;99194.35;124520;1104;64338;-85
2021/05/26 02:01:28;;;;;;;2.73;1.23;;;;;;;7.65;73.30;99203.33;124659;1096;64332;-86
2021/05/26 02:03:56;;;;;;;2.15;1.40;;;;;;;7.64;73.23;99208.73;124637;1097;64310;-85
2021/05/26 02:06:25;;;;;;;3.37;1.60;;;;;;;7.63;73.12;99199.89;124578;1104;64381;-85
2021/05/26 02:08:55;;;;;;;1.70;1.40;;;;;;;7.65;73.25;99200.67;124657;1097;64343;-85
2021/05/26 02:14:09;;;;;;;2.03;1.43;;;;;;;7.66;73.33;99206.83;124593;1096;64342;-84
2021/05/26 02:16:37;;;;;;;2.50;1.10;;;;;;;7.65;73.37;99215.73;124594;1104;64261;-85
2021/05/26 02:19:05;;;;;;;3.00;1.30;;;;;;;7.62;73.47;99211.45;124525;1097;64387;-86
2021/05/26 02:21:32;;;;;;;3.77;2.23;;;;;;;7.61;73.11;99216.81;124664;1097;64312;-84
2021/05/26 02:24:00;;;;;;;4.67;1.10;;;;;;;7.57;73.17;99216.13;124643;1104;64431;-85
2021/05/26 02:26:27;;;;;;;2.83;1.00;;;;;;;7.55;73.29;99217.99;124612;1097;64342;-86
2021/05/26 02:28:55;;;;;;;2.40;1.40;;;;;;;7.52;73.47;99223.46;124558;1097;64361;-84
2021/05/26 02:31:23;;;;;;;4.17;1.27;;;;;;;7.52;73.55;99217.30;124652;1097;64445;-85
2021/05/26 02:33:50;;;;;;;2.60;1.20;;;;;;;7.52;73.43;99217.30;124606;1097;64332;-84
2021/05/26 02:36:17;;;;;;;2.97;1.50;;;;;;;7.50;73.53;99219.16;124644;1097;64310;-85
2021/05/26 02:38:44;;;;;;;5.13;1.80;;;;;;;7.46;73.16;99221.13;124631;1097;64214;-85
2021/05/26 02:41:12;;;;;;;3.30;1.53;;;;;;;7.43;73.38;99210.69;124621;1096;64339;-85
2021/05/26 02:43:40;;;;;;;1.87;1.63;;;;;;;7.39;73.30;99209.95;124552;1104;64483;-85
2021/05/26 02:46:08;;;;;;;4.27;1.90;;;;;;;7.34;73.52;99206.68;124604;1097;64463;-85
2021/05/26 02:48:35;;;;;;;3.97;2.17;;;;;;;7.31;73.55;99211.29;124677;1097;64259;-85
2021/05/26 02:51:02;;;;;;;4.17;2.10;;;;;;;7.23;73.53;99209.87;124597;1097;64413;-85
2021/05/26 02:53:30;;;;;;;2.43;1.70;;;;;;;7.25;73.63;99201.86;124603;1104;64262;-85
2021/05/26 02:55:57;;;;;;;4.97;1.80;;;;;;;7.29;73.68;99202.55;124613;1104;64409;-84
2021/05/26 02:58:24;;;;;;;3.40;2.00;;;;;;;7.31;73.63;99196.23;124623;1104;64348;-84
2021/05/26 03:00:51;;;;;;;4.87;2.30;;;;;;;7.34;73.72;99197.88;124642;1104;64333;-85
2021/05/26 03:03:19;;;;;;;4.20;2.15;;;;;;;7.35;73.36;99195.16;124631;1097;64332;-85
2021/05/26 03:05:46;;;;;;;4.10;2.00;;;;;;;7.34;73.44;99198.73;124528;1104;64331;-86
2021/05/26 03:08:13;;;;;;;4.23;2.50;;;;;;;7.36;73.65;99202.16;124587;1097;64333;-84
2021/05/26 03:10:41;;;;;;;3.70;2.53;;;;;;;7.36;73.39;99201.31;124633;1104;64432;-85
2021/05/26 03:13:09;;;;;;;6.10;3.07;;;;;;;7.35;73.40;99204.91;124618;1097;64826;-85
2021/05/26 03:15:36;;;;;;;3.03;2.53;;;;;;;7.35;73.50;99211.06;124581;1097;64330;-86
2021/05/26 03:18:05;;;;;;;5.57;2.80;;;;;;;7.78;73.44;99215.97;124629;1104;64329;-86
2021/05/26 03:20:33;;;;;;;4.15;2.40;;;;;;;9.19;71.68;99213.59;124609;1097;64425;-85
2021/05/26 03:23:00;;;;;;;3.07;2.20;;;;;;;10.41;70.30;99212.50;124619;1104;64349;-84
2021/05/26 03:25:28;;;;;;;3.95;2.60;;;;;;;11.46;68.97;99207.44;124564;1104;64255;-84
2021/05/26 03:27:55;;;;;;;4.37;2.00;;;;;;;12.39;67.41;99205.48;124628;1104;64287;-83
2021/05/26 03:30:22;;;;;;;3.20;2.37;;;;;;;13.23;65.93;99202.99;124613;1105;64336;-85
2021/05/26 03:32:50;;;;;;;4.13;2.20;;;;;;;13.91;64.88;99215.68;124599;1104;64406;-85
2021/05/26 03:35:18;;;;;;;4.83;2.20;;;;;;;14.62;63.19;99218.21;124614;1096;64336;-85
2021/05/26 03:37:46;;;;;;;7.03;2.27;;;;;;;15.27;61.74;99208.42;124624;1104;64429;-84
2021/05/26 03:40:16;;;;;;;5.37;2.50;;;;;;;15.85;60.51;99206.27;124641;1104;64361;-84
2021/05/26 03:42:44;;;;;;;3.60;2.18;;;;;;;16.41;59.56;99210.41;124672;1104;64419;-84
2021/05/26 03:45:13;;;;;;;2.60;2.10;;;;;;;17.02;58.66;99215.73;124531;1097;64644;-85
2021/05/26 03:47:41;;;;;;;3.50;2.40;;;;;;;17.51;57.43;99216.66;124587;1097;64330;-85
2021/05/26 03:50:13;;;;;;;3.27;2.30;;;;;;;17.89;56.22;99225.74;124648;1096;64278;-84
2021/05/26 03:52:43;;;;;;;4.73;2.73;;;;;;;18.25;55.43;99219.73;124624;1104;64333;-84
2021/05/26 03:55:13;;;;;;;3.10;2.40;;;;;;;18.65;54.73;99214.88;124662;1104;64397;-84
2021/05/26 03:57:41;;;;;;;3.37;2.50;;;;;;;19.01;52.95;99216.85;124565;1104;64464;-83
2021/05/26 04:00:11;;;;;;;4.23;2.57;;;;;;;19.25;52.19;99217.14;124543;1104;64447;-85
2021/05/26 04:02:39;;;;;;;3.77;2.80;;;;;;;19.51;51.41;99206.43;124630;1104;64255;-84
2021/05/26 04:05:07;;;;;;;3.60;2.80;;;;;;;19.79;50.13;99211.76;124601;1096;64355;-84
2021/05/26 04:07:35;;;;;;;6.37;3.60;;;;;;;20.06;49.92;99218.89;124623;1104;64788;-83
2021/05/26 04:10:04;;;;;;;3.83;2.97;;;;;;;20.37;49.23;99215.73;124588;1104;64479;-84
2021/05/26 04:12:31;;;;;;;3.37;3.00;;;;;;;20.61;47.99;99210.47;124576;1104;64335;-84
2021/05/26 04:14:59;;;;;;;3.67;2.93;;;;;;;20.80;47.37;99203.11;124622;1104;64435;-84
2021/05/26 04:17:26;;;;;;;4.23;2.87;;;;;;;20.81;47.08;99215.66;124693;1104;64328;-84
2021/05/26 04:19:54;;;;;;;2.80;2.37;;;;;;;20.86;47.02;99212.47;124595;1097;64301;-83
2021/05/26 04:22:21;;;;;;;3.33;2.73;;;;;;;20.88;46.11;99208.58;124630;1097;64356;-84
2021/05/26 04:24:48;;;;;;;7.23;2.90;;;;;;;21.00;45.93;99209.96;124633;1104;64469;-83
2021/05/26 04:27:15;;;;;;;4.43;2.30;;;;;;;21.21;44.94;99212.23;124656;1104;64372;-84
2021/05/26 04:29:43;;;;;;;4.20;2.17;;;;;;;21.14;45.03;99211.18;124607;1097;64336;-84
2021/05/26 04:32:10;;;;;;;4.17;2.47;;;;;;;21.41;44.57;99209.27;124627;1097;64243;-85
2021/05/26 04:34:37;;;;;;;4.33;2.53;;;;;;;21.74;44.13;99220.14;124538;1104;64384;-83
2021/05/26 04:37:05;;;;;;;2.87;2.43;;;;;;;21.97;43.30;99213.02;124629;1104;64249;-83
2021/05/26 04:39:32;;;;;;;2.73;2.20;;;;;;;22.01;43.43;99218.95;124612;1104;64360;-84
2021/05/26 04:41:59;;;;;;;3.17;2.40;;;;;;;22.30;43.09;99221.14;124637;1104;64256;-85
2021/05/26 04:44:26;;;;;;;3.43;2.67;;;;;;;22.37;42.35;99218.60;124503;1096;64329;-83
2021/05/26 04:46:54;;;;;;;4.03;3.10;;;;;;;22.57;42.14;99225.35;124598;1104;64339;-83
2021/05/26 04:49:21;;;;;;;4.85;3.10;;;;;;;22.74;42.01;99221.54;124589;1104;64387;-84
2021/05/26 04:51:48;;;;;;;3.30;2.25;;;;;;;22.88;41.55;99221.83;124590;1096;64367;-83
2021/05/26 04:54:16;;;;;;;4.67;2.60;;;;;;;22.96;41.27;99211.82;124501;1105;64326;-84
2021/05/26 04:56:44;;;;;;;3.20;2.20;;;;;;;23.18;41.17;99215.61;124627;1097;64281;-84
2021/05/26 04:59:12;;;;;;;3.67;2.80;;;;;;;23.29;40.51;99208.91;124545;1097;64477;-85
2021/05/26 05:01:39;;;;;;;4.90;2.90;;;;;;;23.27;40.13;99208.23;124699;1104;64374;-85
2021/05/26 05:04:07;;;;;;;4.80;2.87;;;;;;;23.33;40.20;99209.39;124627;1097;64371;-83
2021/05/26 05:06:34;;;;;;;4.17;2.77;;;;;;;23.42;39.50;99209.17;124582;1097;64342;-84
2021/05/26 05:09:02;;;;;;;4.60;2.47;;;;;;;23.46;39.54;99209.67;124558;1104;64265;-83
2021/05/26 05:11:31;;;;;;;4.77;3.07;;;;;;;23.50;38.93;99202.83;124597;1104;64346;-83
2021/05/26 05:13:59;;;;;;;3.93;2.53;;;;;;;23.54;39.17;99212.34;124683;1104;64360;-84
2021/05/26 05:16:27;;;;;;;2.43;1.67;;;;;;;23.60;38.66;99208.88;124543;1097;64330;-83
2021/05/26 05:18:54;;;;;;;3.60;2.23;;;;;;;23.58;38.62;99210.93;124717;1104;64346;-84
2021/05/26 05:21:22;;;;;;;3.73;2.33;;;;;;;23.70;38.54;99216.81;124640;1097;64368;-83
2021/05/26 05:23:49;;;;;;;4.07;2.17;;;;;;;23.81;38.58;99221.02;124591;1104;64371;-84
2021/05/26 05:26:17;;;;;;;3.10;2.50;;;;;;;23.97;38.62;99214.58;124610;1097;64435;-84
2021/05/26 05:28:44;;;;;;;2.67;2.07;;;;;;;24.13;38.63;99216.31;124579;1097;64371;-83
2021/05/26 05:31:11;;;;;;;3.75;2.20;;;;;;;24.45;38.17;99218.73;124597;1097;64301;-84
2021/05/26 05:33:39;;;;;;;2.50;1.80;;;;;;;24.51;37.51;99218.00;124630;1097;64327;-82
2021/05/26 05:36:06;;;;;;;3.23;1.70;;;;;;;24.50;36.99;99218.17;124533;1104;64760;-83
2021/05/26 05:38:33;;;;;;;2.10;1.40;;;;;;;24.42;37.19;99215.51;124614;1097;64243;-84
2021/05/26 05:41:01;;;;;;;1.70;1.40;;;;;;;24.58;37.24;99209.91;124540;1097;64765;-83
2021/05/26 05:43:28;;;;;;;1.93;1.40;;;;;;;24.47;37.37;99218.55;124596;1097;64374;-84
2021/05/26 05:45:55;;;;;;;2.35;1.60;;;;;;;24.51;37.57;99212.55;124604;1104;64339;-84
2021/05/26 05:48:23;;;;;;;2.03;1.53;;;;;;;24.54;37.40;99216.78;124564;1104;64336;-84
2021/05/26 05:50:50;;;;;;;2.20;1.60;;;;;;;24.42;37.11;99208.17;124642;1104;64337;-84
2021/05/26 05:53:17;;;;;;;2.60;1.73;;;;;;;24.23;37.05;99208.73;124631;1104;64303;-84
2021/05/26 05:55:44;;;;;;;2.97;1.60;;;;;;;23.90;36.88;99214.45;124572;1097;64390;-84
2021/05/26 05:58:12;;;;;;;4.33;1.50;;;;;;;23.80;37.36;99203.84;124588;1097;64658;-83
2021/05/26 06:00:39;;;;;;;2.20;1.20;;;;;;;24.00;37.01;99211.48;124648;1097;64331;-84
2021/05/26 06:03:09;;;;;;;2.47;2.00;;;;;;;24.04;36.62;99201.91;124590;1104;64458;-84
2021/05/26 06:05:36;;;;;;;1.93;1.20;;;;;;;23.94;36.68;99204.91;124592;1097;64323;-82
2021/05/26 06:08:04;;;;;;;2.63;1.40;;;;;;;24.07;36.67;99205.13;124581;1097;64313;-85
2021/05/26 06:10:31;;;;;;;3.75;1.50;;;;;;;24.10;36.77;99195.74;124551;1097;64786;-85
2021/05/26 06:13:00;;;;;;;2.73;1.33;;;;;;;24.16;36.17;99197.72;124533;1097;64318;-84
2021/05/26 06:15:27;;;;;;;1.70;1.30;;;;;;;23.92;35.40;99197.95;124577;1104;64333;-82
2021/05/26 06:17:58;;;;;;;2.00;1.10;;;;;;;23.88;36.31;99194.73;124701;1104;64358;-83
2021/05/26 06:20:26;;;;;;;1.70;1.30;;;;;;;23.96;36.54;99197.41;124613;1104;64341;-82
2021/05/26 06:22:54;;;;;;;2.40;1.20;;;;;;;23.82;36.54;99200.92;124636;1096;64354;-83
2021/05/26 06:25:21;;;;;;;3.93;1.17;;;;;;;23.72;36.00;99198.44;124617;1104;64407;-83
2021/05/26 06:27:48;;;;;;;2.13;0.90;;;;;;;23.48;35.52;99198.59;124647;1105;64435;-82
2021/05/26 06:30:16;;;;;;;2.43;1.00;;;;;;;23.33;35.22;99195.79;124664;1097;64326;-82
2021/05/26 06:32:43;;;;;;;3.13;1.20;;;;;;;23.10;34.85;99199.34;124586;1104;64256;-83
2021/05/26 06:35:11;;;;;;;3.47;1.00;;;;;;;22.81;34.39;99191.81;124523;1104;64259;-83
2021/05/26 06:37:39;;;;;;;2.50;0.85;;;;;;;22.53;34.56;99196.83;124649;1104;64553;-84
2021/05/26 06:40:06;;;;;;;3.50;1.13;;;;;;;22.44;34.08;99201.44;124578;1097;64348;-82
2021/05/26 06:42:34;;;;;;;2.27;0.80;;;;;;;22.37;34.41;99205.87;124612;1096;64339;-83
2021/05/26 06:45:01;;;;;;;0.70;0.60;;;;;;;22.19;34.35;99197.08;124752;1104;64409;-83
2021/05/26 06:47:28;;;;;;;2.60;0.93;;;;;;;22.11;35.25;99193.31;124547;1096;64332;-83
2021/05/26 06:49:56;;;;;;;4.27;0.90;;;;;;;22.14;35.32;99200.27;124792;1096;64489;-84
2021/05/26 06:52:23;;;;;;;1.20;0.90;;;;;;;22.20;35.55;99193.36;124771;1097;64462;-83
2021/05/26 06:54:50;;;;;;;3.60;1.00;;;;;;;22.26;35.47;99190.79;124631;1097;64333;-83
2021/05/26 06:57:18;;;;;;;2.77;0.77;;;;;;;22.32;34.14;99198.23;124687;1097;64284;-83
2021/05/26 06:59:45;;;;;;;1.80;0.70;;;;;;;22.14;34.36;99198.42;124576;1104;64333;-86
2021/05/26 07:02:12;;;;;;;1.23;0.70;;;;;;;21.94;34.64;99196.24;124667;1096;64339;-84
2021/05/26 07:04:40;;;;;;;1.90;0.90;;;;;;;21.59;34.23;99201.83;124684;1096;64315;-83
2021/05/26 07:07:07;;;;;;;2.03;1.10;;;;;;;21.35;34.92;99190.91;124683;1097;64339;-84
2021/05/26 07:09:34;;;;;;;2.53;1.20;;;;;;;21.41;35.64;99198.42;124747;1097;64328;-84
2021/05/26 07:12:02;;;;;;;1.70;0.60;;;;;;;21.36;35.11;99189.91;124735;1097;64342;-83
2021/05/26 07:14:29;;;;;;;4.60;0.80;;;;;;;21.13;35.13;99198.66;124550;1104;64347;-84
2021/05/26 07:16:56;;;;;;;1.93;0.67;;;;;;;21.05;35.05;99195.92;124592;1097;64448;-84
2021/05/26 07:19:23;;;;;;;1.83;0.60;;;;;;;20.69;34.09;99192.57;124696;1104;64762;-84
2021/05/26 07:21:51;;;;;;;3.30;1.30;;;;;;;20.21;35.14;99185.86;124670;1097;64425;-84
2021/05/26 07:24:18;;;;;;;1.30;0.80;;;;;;;19.98;35.02;99190.94;124570;1105;64336;-84
2021/05/26 07:26:46;;;;;;;6.30;0.80;;;;;;;19.71;35.72;99193.61;124809;1097;64345;-84
2021/05/26 07:29:13;;;;;;;1.27;0.60;;;;;;;19.47;36.39;99190.67;124713;1104;64329;-84
2021/05/26 07:31:41;;;;;;;2.80;0.60;;;;;;;19.25;35.70;99189.28;124657;1097;64343;-84
2021/05/26 07:34:08;;;;;;;3.53;1.07;;;;;;;19.01;35.94;99189.84;124755;1104;64353;-85
2021/05/26 07:36:36;;;;;;;2.83;0.90;;;;;;;18.95;36.34;99191.30;124678;1097;64299;-83
2021/05/26 07:39:05;;;;;;;2.63;0.70;;;;;;;18.84;36.29;99188.81;124592;1104;64387;-83
2021/05/26 07:41:32;;;;;;;2.00;0.70;;;;;;;18.78;36.69;99186.73;124625;1104;64277;-84
2021/05/26 07:44:00;;;;;;;3.07;1.00;;;;;;;18.73;36.47;99184.44;124613;1096;64278;-84
2021/05/26 07:46:27;;;;;;;3.35;0.75;;;;;;;18.61;37.00;99191.02;124710;1097;64285;-84
2021/05/26 07:48:54;;;;;;;3.75;1.10;;;;;;;18.56;37.23;99186.09;124652;1104;64253;-85
2021/05/26 07:51:31;;;;;;;2.20;1.03;;;;;;;18.49;37.28;99189.54;124527;1097;64490;-86
2021/05/26 07:54:01;;;;;;;3.40;1.00;;;;;;;18.44;37.28;99189.97;124597;1097;64377;-85
2021/05/26 07:56:28;;;;;;;;;;;;;;;18.38;37.40;99177.08;124617;1097;64449;-84
2021/05/26 07:58:55;;;;;;;3.60;1.20;;;;;;;18.40;38.44;99180.45;124614;1096;64396;-86
2021/05/26 08:01:23;;;;;;;5.97;2.00;;;;;;;18.48;38.43;99182.42;124621;1104;64304;-86
2021/05/26 08:03:50;;;;;;;2.70;0.90;;;;;;;18.47;38.32;99181.58;124681;1097;64428;-85
2021/05/26 08:06:17;;;;;;;3.77;0.87;;;;;;;18.37;38.46;99181.60;124583;1104;64425;-85
2021/05/26 08:08:44;;;;;;;2.97;1.07;;;;;;;18.41;38.90;99166.83;124642;1104;64380;-84
2021/05/26 08:11:12;;;;;;;2.17;1.07;;;;;;;18.50;38.89;99167.78;124724;1104;64362;-83
2021/05/26 08:13:39;;;;;;;4.03;1.10;;;;;;;18.61;39.03;99169.43;124554;1097;64253;-83
2021/05/26 08:16:07;;;;;;;2.70;0.90;;;;;;;18.76;38.62;99161.72;124714;1097;64253;-83
2021/05/26 08:18:34;;;;;;;3.07;1.00;;;;;;;18.85;38.44;99161.67;124619;1104;64502;-84
2021/05/26 08:21:02;;;;;;;6.07;1.10;;;;;;;18.91;38.41;99165.62;124599;1097;64395;-83
2021/05/26 08:23:29;;;;;;;22.33;2.90;;;;;;;18.96;37.92;99151.66;124630;1104;64692;-83
2021/05/26 08:25:56;;;;;;;6.83;0.97;;;;;;;18.94;38.04;99150.96;124709;1104;64282;-84
2021/05/26 08:28:25;;;;;;;4.77;1.00;;;;;;;19.03;38.92;99148.17;124658;1104;64422;-84
2021/05/26 08:30:53;;;;;;;1.07;0.60;;;;;;;19.14;38.07;99147.13;124677;1097;64358;-84
2021/05/26 08:33:21;;;;;;;1.50;0.80;;;;;;;19.23;37.66;99151.59;124702;1096;64330;-83
2021/05/26 08:35:48;;;;;;;1.77;0.60;;;;;;;19.29;38.84;99152.83;124657;1097;64441;-83
2021/05/26 08:38:15;;;;;;;2.03;0.77;;;;;;;19.39;37.72;99152.75;124732;1097;64278;-83
2021/05/26 08:40:42;;;;;;;1.40;0.90;;;;;;;19.25;36.94;99156.86;124646;1104;64444;-84
2021/05/26 08:43:15;;;;;;;2.27;0.60;;;;;;;19.17;36.02;99144.11;124694;1104;64464;-83
2021/05/26 08:45:43;;;;;;;1.30;0.60;;;;;;;19.05;35.69;99145.33;124623;1104;64281;-83
2021/05/26 08:48:15;;;;;;;2.40;0.60;;;;;;;18.93;35.80;99138.44;124619;1104;64352;-84
2021/05/26 08:50:46;;;;;;;2.95;0.70;;;;;;;18.85;36.65;99144.59;124585;1097;64387;-83
2021/05/26 08:53:13;;;;;;;3.40;0.60;;;;;;;18.95;37.83;99134.58;124682;1105;64437;-84
2021/05/26 08:55:40;;;;;;;3.23;0.80;;;;;;;19.10;37.06;99140.32;124621;1104;64442;-84
2021/05/26 08:58:08;;;;;;;2.87;0.97;;;;;;;19.27;38.21;99144.02;124629;1104;64278;-84
2021/05/26 09:00:35;;;;;;;1.90;0.70;;;;;;;19.44;37.46;99135.06;124640;1097;64336;-84
2021/05/26 09:03:05;;;;;;;4.73;1.20;;;;;;;19.51;36.66;99132.59;124643;1097;64352;-83
2021/05/26 09:05:34;;;;;;;4.13;0.67;;;;;;;19.57;36.85;99131.96;124640;1104;64403;-82
2021/05/26 09:08:23;;;;;;;3.00;1.10;;;;;;;19.63;36.62;99125.91;124622;1104;64336;-83
2021/05/26 09:10:53;;;;;;;1.18;0.40;;;;;;;19.57;35.80;99134.66;124681;1104;64387;-84
2021/05/26 09:13:37;;;;;;;;;;;;;;;19.55;35.92;99130.42;124726;1104;64336;-84
2021/05/26 09:16:28;;;;;;;1.17;0.63;;;;;;;19.46;35.76;99132.22;124672;1097;64352;-83
2021/05/26 09:18:59;;;;;;;3.80;0.70;;;;;;;19.41;35.93;99129.98;124525;1104;64331;-84
2021/05/26 09:21:58;;;;;;;2.00;0.73;;;;;;;19.52;35.27;99128.88;124656;1104;64304;-84
2021/05/26 09:24:26;;;;;;;1.17;0.80;;;;;;;19.48;36.25;99124.77;124645;1097;64329;-83
2021/05/26 09:26:54;;;;;;;2.13;0.90;;;;;;;19.61;35.50;99125.22;124594;1104;64426;-83
2021/05/26 09:29:29;;;;;;;3.13;1.00;;;;;;;19.49;35.21;99113.82;124613;1104;64812;-83
2021/05/26 09:32:14;;;;;;;1.60;0.80;;;;;;;19.50;36.89;99098.45;124668;1104;65227;-84
2021/05/26 09:34:44;;;;;;;1.45;0.60;;;;;;;19.66;35.06;99105.83;124669;1097;64258;-83
2021/05/26 09:37:12;;;;;;;;;;;;;;;19.60;35.54;99111.88;124714;1104;64348;-84
2021/05/26 09:39:43;;;;;;;4.40;0.73;;;;;;;19.60;35.56;99109.17;124632;1105;64303;-84
2021/05/26 09:42:28;;;;;;;1.23;0.80;;;;;;;19.65;35.68;99110.39;124634;1097;64361;-84
2021/05/26 09:45:06;;;;;;;2.20;0.90;;;;;;;19.68;36.20;99101.99;124776;1104;64429;-84
2021/05/26 09:47:41;;;;;;;3.57;0.70;;;;;;;19.83;36.16;99102.27;124787;1097;64330;-84
2021/05/26 09:50:17;;;;;;;2.17;0.80;;;;;;;19.72;36.00;99094.40;124758;1097;64335;-83
2021/05/26 09:52:56;;;;;;;2.65;0.70;;;;;;;19.91;36.14;99086.09;124809;1096;64333;-83
2021/05/26 09:55:44;;;;;;;3.17;0.90;;;;;;;20.14;36.72;99089.09;124641;1097;64334;-83
2021/05/26 09:58:16;;;;;;;2.80;0.90;;;;;;;20.52;36.36;99086.03;124605;1097;64522;-83
2021/05/26 10:00:46;;;;;;;2.57;1.27;;;;;;;20.88;35.78;99092.09;124646;1104;64380;-83
2021/05/26 10:03:14;;;;;;;;;;;;;;;21.28;35.63;99084.17;124716;1096;64412;-84
2021/05/26 10:05:41;;;;;;;3.13;1.43;;;;;;;21.49;35.77;99079.12;124638;1104;64352;-83
2021/05/26 10:08:14;;;;;;;0.80;0.80;;;;;;;21.79;35.82;99071.27;124666;1104;64330;-84
2021/05/26 10:10:47;;;;;;;2.17;1.00;;;;;;;21.99;34.51;99072.58;124628;1097;64469;-84
2021/05/26 10:13:15;;;;;;;2.80;1.23;;;;;;;22.04;35.23;99069.36;124681;1104;64799;-84
2021/05/26 10:15:43;;;;;;;1.97;0.80;;;;;;;22.06;33.97;99064.58;124662;1097;64300;-84
2021/05/26 10:18:11;;;;;;;8.97;1.10;;;;;;;21.68;34.13;99073.32;124625;1104;64253;-85
2021/05/26 10:20:43;;;;;;;3.23;1.23;;;;;;;21.38;34.80;99076.73;124682;1097;64389;-84
2021/05/26 10:23:16;;;;;;;5.53;1.37;;;;;;;21.19;34.86;99069.75;124797;1097;64326;-84
2021/05/26 10:25:44;;;;;;;3.10;1.10;;;;;;;21.39;35.50;99071.14;124808;1104;64416;-85
2021/05/26 10:28:32;;;;;;;2.77;1.03;;;;;;;21.62;35.72;99063.17;124670;1097;64329;-84
2021/05/26 10:31:02;;;;;;;3.13;0.90;;;;;;;21.79;35.16;99065.84;124641;1097;64345;-85
2021/05/26 10:33:42;;;;;;;;;;;;;;;21.76;34.82;99055.34;124556;1105;64420;-85
2021/05/26 10:36:11;;;;;;;;;;;;;;;21.63;34.31;99064.01;124593;1104;64355;-83
2021/05/26 10:38:58;;;;;;;2.90;0.97;;;;;;;21.37;34.36;99066.88;124621;1104;64333;-84
2021/05/26 10:41:51;;;;;;;2.87;1.00;;;;;;;21.47;35.08;99054.87;124669;1097;64374;-86
2021/05/26 10:47:39;;;;;;;3.50;1.20;;;;;;;21.31;35.21;99062.98;127795;1086;64339;-83
2021/05/26 10:51:05;;;;;;;1.87;0.90;;;;;;;21.61;34.30;99056.03;125090;1099;64278;-93
2021/05/26 10:53:39;;;;;;;1.43;0.77;;;;;;;21.90;34.46;99057.33;125336;1105;63301;-93
2021/05/26 10:56:37;;;;;;;3.27;1.20;;;;;;;21.92;34.41;99041.73;125361;1104;64428;-93
2021/05/26 10:59:33;;;;;;;1.67;0.80;;;;;;;21.98;33.51;99043.73;125344;1105;64227;-94
2021/05/26 11:02:07;;;;;;;1.97;0.90;;;;;;;21.58;33.11;99045.53;125403;1104;64240;-91
2021/05/26 11:04:39;;;;;;;1.80;1.00;;;;;;;21.52;33.80;99042.67;125559;1104;64323;-94
2021/05/26 11:07:18;;;;;;;2.07;0.90;;;;;;;21.62;33.51;99044.18;126924;1104;64253;-91
2021/05/26 11:10:25;;;;;;;1.57;0.80;;;;;;;21.48;33.75;99040.31;125925;1099;64312;-94
2021/05/26 11:12:55;;;;;;;1.63;1.10;;;;;;;21.18;32.38;99030.13;125860;1104;64812;-93
2021/05/26 11:15:58;;;;;;;3.43;1.00;;;;;;;20.86;33.46;99039.94;126403;1104;64335;-94
2021/05/26 11:19:01;;;;;;;2.90;1.17;;;;;;;20.76;34.61;99037.38;126515;1104;64198;-93
2021/05/26 11:21:32;;;;;;;6.25;2.60;;;;;;;20.85;34.03;99019.25;126526;1105;64349;-92
2021/05/26 11:24:03;;;;;;;3.27;2.10;;;;;;;20.81;34.33;99010.63;125633;1096;64430;-94
2021/05/26 11:26:35;;;;;;;2.53;1.10;;;;;;;20.83;34.57;99005.05;126429;1104;64307;-94
2021/05/26 11:29:10;;;;;;;3.53;1.20;;;;;;;20.82;34.07;99009.60;126012;1104;64256;-92
2021/05/26 11:31:38;;;;;;;1.93;0.80;;;;;;;20.79;34.51;99011.81;125531;1104;64326;-93
2021/05/26 11:34:09;;;;;;;3.03;0.70;;;;;;;20.72;34.17;99008.06;125380;1097;64342;-92
2021/05/26 11:36:47;;;;;;;2.55;1.10;;;;;;;20.67;34.11;99007.72;125433;1105;64395;-91
2021/05/26 11:39:18;;;;;;;3.77;1.80;;;;;;;20.68;35.23;98995.89;125482;1104;64335;-93
2021/05/26 11:41:46;;;;;;;3.20;1.63;;;;;;;20.76;35.37;98993.19;125270;1104;64399;-92
2021/05/26 11:44:13;;;;;;;4.60;1.55;;;;;;;20.91;35.28;98983.39;125054;1104;64335;-93
2021/05/26 11:46:44;;;;;;;3.75;1.30;;;;;;;21.01;35.71;98988.61;125074;1105;64428;-93